createdAt,value
2023-03-17T09:58:12.739Z,20.86
2023-03-17T09:58:46.450Z,20.83
2023-03-17T09:59:15.220Z,20.75
2023-03-17T09:59:42.970Z,20.62
2023-03-17T10:00:14.540Z,20.44
2023-03-17T10:00:45.675Z,20.26
2023-03-17T10:01:16.723Z,20.15
2023-03-17T10:01:44.660Z,20.11
2023-03-17T10:02:12.319Z,20.10
2023-03-17T10:02:46.563Z,20.12
2023-03-17T10:03:15.469Z,20.19
2023-03-17T10:03:44.804Z,20.26
2023-03-17T10:04:14.429Z,20.28
2023-03-17T10:04:44.320Z,20.27
2023-03-17T10:05:15.965Z,20.31
2023-03-17T10:05:44.418Z,20.37
2023-03-17T10:06:18.105Z,20.43
2023-03-17T10:06:45.915Z,20.49
2023-03-17T10:07:17.463Z,20.56
2023-03-17T10:07:42.701Z,20.63
2023-03-17T10:08:29.396Z,20.66
2023-03-17T10:08:49.708Z,20.66
2023-03-17T10:09:23.690Z,20.64
2023-03-17T10:09:47.597Z,20.63
2023-03-17T10:10:12.797Z,20.62
2023-03-17T10:10:45.813Z,20.61
2023-03-17T10:11:17.538Z,20.59
2023-03-17T10:11:43.565Z,20.60
2023-03-17T10:12:14.300Z,20.60
2023-03-17T10:12:43.560Z,20.60
2023-03-17T10:13:21.422Z,20.61
2023-03-17T10:13:43.220Z,20.60
2023-03-17T10:14:17.654Z,20.61
2023-03-17T10:14:42.682Z,20.61
2023-03-17T10:15:16.598Z,20.61
2023-03-17T10:15:42.593Z,20.61
2023-03-17T10:16:12.336Z,20.62
2023-03-17T10:16:43.550Z,20.62
2023-03-17T10:17:15.093Z,20.61
2023-03-17T10:17:42.262Z,20.60
2023-03-17T10:18:13.021Z,20.61
2023-03-17T10:18:44.591Z,20.63
2023-03-17T10:19:13.363Z,20.66
2023-03-17T10:19:44.071Z,20.69
2023-03-17T10:20:14.684Z,20.72
2023-03-17T10:20:45.400Z,20.75
2023-03-17T10:21:13.629Z,20.80
2023-03-17T10:21:47.109Z,20.85
2023-03-17T10:22:11.718Z,20.89
2023-03-17T10:22:42.648Z,20.92
2023-03-17T10:23:18.574Z,20.93
2023-03-17T10:23:47.028Z,20.96
2023-03-17T10:24:15.065Z,20.99
2023-03-17T10:24:48.887Z,21.00
2023-03-17T10:25:18.422Z,21.02
2023-03-17T10:25:45.858Z,21.05
2023-03-17T10:26:15.607Z,21.09
2023-03-17T10:26:42.072Z,21.12
2023-03-17T10:27:23.760Z,21.17
2023-03-17T10:27:45.834Z,21.21
2023-03-17T10:28:14.416Z,21.25
2023-03-17T10:28:43.107Z,21.27
2023-03-17T10:29:14.647Z,21.27
2023-03-17T10:29:48.540Z,21.26
2023-03-17T10:30:14.018Z,21.26
2023-03-17T10:30:58.746Z,21.27
2023-03-17T10:31:14.801Z,21.27
2023-03-17T10:31:44.550Z,21.29
2023-03-17T10:32:18.518Z,21.30
2023-03-17T10:32:43.831Z,21.32
2023-03-17T10:33:18.135Z,21.34
2023-03-17T10:33:42.626Z,21.36
2023-03-17T10:34:15.796Z,21.38
2023-03-17T10:34:42.545Z,21.38
2023-03-17T10:35:16.650Z,21.39
2023-03-17T10:35:45.434Z,21.39
2023-03-17T10:36:14.134Z,21.38
2023-03-17T10:36:42.138Z,21.39
2023-03-17T10:37:18.569Z,21.39
2023-03-17T10:37:43.977Z,21.40
2023-03-17T10:38:15.062Z,21.40
2023-03-17T10:38:43.794Z,21.42
2023-03-17T10:39:13.966Z,21.42
2023-03-17T10:39:46.543Z,21.43
2023-03-17T10:40:12.001Z,21.46
2023-03-17T10:40:45.758Z,21.47
2023-03-17T10:41:14.370Z,21.47
2023-03-17T10:41:42.642Z,21.46
2023-03-17T10:42:12.657Z,21.46
2023-03-17T10:42:43.683Z,21.49
2023-03-17T10:43:13.579Z,21.49
2023-03-17T10:43:44.417Z,21.51
2023-03-17T10:44:12.247Z,21.54
2023-03-17T10:44:41.646Z,21.56
2023-03-17T10:45:19.148Z,21.58
2023-03-17T10:45:49.064Z,21.58
2023-03-17T10:46:25.169Z,21.63
2023-03-17T10:47:05.666Z,21.64
2023-03-17T10:47:12.028Z,21.61
2023-03-17T10:47:43.152Z,21.58
2023-03-17T10:48:19.091Z,21.47
2023-03-17T10:48:59.766Z,21.38
2023-03-17T10:49:17.651Z,21.27
2023-03-17T10:49:46.542Z,21.17
2023-03-17T10:50:15.306Z,21.09
2023-03-17T10:50:47.842Z,21.02
2023-03-17T10:51:17.840Z,20.96
2023-03-17T10:51:42.604Z,20.92
2023-03-17T10:52:11.776Z,20.89
2023-03-17T10:52:42.036Z,20.87
2023-03-17T10:55:28.545Z,20.84
2023-03-17T10:55:37.777Z,20.74
2023-03-17T10:56:06.792Z,20.72
2023-03-17T10:57:08.584Z,20.69
2023-03-17T10:57:44.132Z,20.66
2023-03-17T10:58:11.837Z,20.63
2023-03-17T10:59:04.214Z,20.52
2023-03-17T10:59:33.720Z,20.46
2023-03-17T11:00:07.941Z,20.43
2023-03-17T11:00:47.475Z,20.40
2023-03-17T11:01:16.475Z,20.37
2023-03-17T11:01:34.960Z,20.32
2023-03-17T11:02:08.550Z,20.30
2023-03-17T11:02:43.034Z,20.27
2023-03-17T11:03:10.443Z,20.23
2023-03-17T11:04:56.270Z,20.10
2023-03-17T11:05:59.402Z,20.07
2023-03-17T11:07:26.638Z,20.01
2023-03-17T11:07:55.619Z,19.99
2023-03-17T11:08:26.429Z,19.98
2023-03-17T11:08:53.464Z,19.96
2023-03-17T11:09:23.244Z,19.95
2023-03-17T11:11:02.356Z,19.93
2023-03-17T11:12:18.178Z,19.92
2023-03-17T11:12:24.114Z,19.93
2023-03-17T11:12:57.240Z,19.94
2023-03-17T11:13:23.106Z,19.94
2023-03-17T11:13:55.908Z,19.94
2023-03-17T11:14:24.356Z,19.95
2023-03-17T11:15:56.140Z,19.92
2023-03-17T11:16:28.092Z,19.92
2023-03-17T11:18:12.270Z,19.90
2023-03-17T11:18:19.430Z,19.87
2023-03-17T11:18:52.723Z,19.86
2023-03-17T11:19:20.731Z,19.86
2023-03-17T11:19:51.103Z,19.87
2023-03-17T11:20:24.245Z,19.87
2023-03-17T11:20:52.233Z,19.87
2023-03-17T11:21:18.274Z,19.87
2023-03-17T11:24:18.787Z,19.88
2023-03-17T11:24:32.018Z,19.97
2023-03-17T11:24:59.865Z,19.98
2023-03-17T11:25:26.322Z,19.98
2023-03-17T11:25:54.255Z,19.99
2023-03-17T11:26:24.311Z,19.99
2023-03-17T11:26:57.598Z,19.99
2023-03-17T11:27:31.645Z,19.98
2023-03-17T11:27:54.546Z,19.98
2023-03-17T11:28:29.500Z,19.98
2023-03-17T11:28:55.794Z,19.97
2023-03-17T11:29:26.550Z,19.97
2023-03-17T11:29:55.489Z,19.98
2023-03-17T11:30:24.520Z,20.00
2023-03-17T11:30:55.390Z,20.00
2023-03-17T11:31:27.205Z,20.00
2023-03-17T11:31:54.423Z,20.00
2023-03-17T11:32:31.815Z,20.00
2023-03-17T11:32:55.469Z,20.01
2023-03-17T11:33:24.091Z,20.01
2023-03-17T11:33:59.929Z,20.02
2023-03-17T11:34:26.449Z,20.04
2023-03-17T11:34:57.873Z,20.05
2023-03-17T11:35:27.913Z,20.06
2023-03-17T11:35:53.593Z,20.06
2023-03-17T11:36:29.788Z,20.06
2023-03-17T11:36:59.692Z,20.06
2023-03-17T11:37:28.183Z,20.07
2023-03-17T11:37:58.164Z,20.07
2023-03-17T11:38:24.527Z,20.07
2023-03-17T11:38:56.140Z,20.07
2023-03-17T11:39:26.410Z,20.08
